createdAt,value
2023-05-10T00:00:27.611Z,64.90
2023-05-10T00:02:54.459Z,65.40
2023-05-10T00:05:21.598Z,65.70
2023-05-10T00:07:48.365Z,66.10
2023-05-10T00:10:15.380Z,66.30
2023-05-10T00:12:42.799Z,66.50
2023-05-10T00:15:10.421Z,66.70
2023-05-10T00:17:37.261Z,66.50
2023-05-10T00:20:05.946Z,66.70
2023-05-10T00:22:33.223Z,66.90
2023-05-10T00:25:00.561Z,67.00
2023-05-10T00:27:27.474Z,67.10
2023-05-10T00:29:54.407Z,67.20
2023-05-10T00:32:21.829Z,67.10
2023-05-10T00:34:48.782Z,67.30
2023-05-10T00:37:15.612Z,67.20
2023-05-10T00:39:42.376Z,67.60
2023-05-10T00:42:09.443Z,67.00
2023-05-10T00:44:36.327Z,66.50
2023-05-10T00:47:03.136Z,66.40
2023-05-10T00:49:30.895Z,66.00
2023-05-10T00:51:58.353Z,65.80
2023-05-10T00:54:25.327Z,65.70
2023-05-10T00:56:53.028Z,65.60
2023-05-10T00:59:20.282Z,65.40
2023-05-10T01:01:47.687Z,65.30
2023-05-10T01:04:15.619Z,65.40
2023-05-10T01:06:43.331Z,65.30
2023-05-10T01:09:11.048Z,65.00
2023-05-10T01:11:40.068Z,65.00
2023-05-10T01:14:07.789Z,65.00
2023-05-10T01:16:39.320Z,65.20
2023-05-10T01:19:23.068Z,65.00
2023-05-10T01:21:53.464Z,64.90
2023-05-10T01:24:38.463Z,65.20
2023-05-10T01:27:35.313Z,65.20
2023-05-10T01:30:25.756Z,65.10
2023-05-10T01:33:01.828Z,65.10
2023-05-10T01:35:52.805Z,64.90
2023-05-10T01:38:38.462Z,64.60
2023-05-10T01:41:36.801Z,64.60
2023-05-10T01:44:17.367Z,64.90
2023-05-10T01:46:44.277Z,64.10
2023-05-10T01:49:20.305Z,65.20
2023-05-10T01:51:52.737Z,64.30
2023-05-10T01:54:22.620Z,64.30
2023-05-10T01:56:56.206Z,64.20
2023-05-10T01:59:28.757Z,64.00
2023-05-10T02:01:58.596Z,64.20
2023-05-10T02:04:26.357Z,64.10
2023-05-10T02:06:55.294Z,64.00
2023-05-10T02:09:24.218Z,64.00
2023-05-10T02:11:51.595Z,64.10
2023-05-10T02:14:20.755Z,64.10
2023-05-10T02:16:48.677Z,64.80
2023-05-10T02:19:18.117Z,64.40
2023-05-10T02:21:46.539Z,64.10
2023-05-10T02:24:15.053Z,64.10
2023-05-10T02:26:43.353Z,64.00
2023-05-10T02:29:10.857Z,64.10
2023-05-10T02:31:39.829Z,64.10
2023-05-10T02:34:09.946Z,64.30
2023-05-10T02:36:39.015Z,64.40
2023-05-10T02:39:10.520Z,64.30
2023-05-10T02:41:38.409Z,64.60
2023-05-10T02:44:09.040Z,64.40
2023-05-10T02:46:36.847Z,64.40
2023-05-10T02:49:03.931Z,64.60
2023-05-10T02:51:34.721Z,64.50
2023-05-10T02:54:19.344Z,64.50
2023-05-10T02:56:54.731Z,64.50
2023-05-10T02:59:21.875Z,64.60
2023-05-10T03:01:48.852Z,64.60
2023-05-10T03:04:16.568Z,64.70
2023-05-10T03:06:43.882Z,64.80
2023-05-10T03:09:12.185Z,65.00
2023-05-10T03:12:20.910Z,65.00
2023-05-10T03:15:02.628Z,65.90
2023-05-10T03:17:48.162Z,65.40
2023-05-10T03:20:25.681Z,65.40
2023-05-10T03:23:03.641Z,65.60
2023-05-10T03:25:32.127Z,65.30
2023-05-10T03:28:01.156Z,66.20
2023-05-10T03:30:28.706Z,65.50
2023-05-10T03:32:55.586Z,65.20
2023-05-10T03:35:22.393Z,65.40
2023-05-10T03:37:49.109Z,65.70
2023-05-10T03:40:16.598Z,65.90
2023-05-10T03:42:43.595Z,66.00
2023-05-10T03:45:10.770Z,65.60
2023-05-10T03:47:37.613Z,65.50
2023-05-10T03:50:04.946Z,65.90
2023-05-10T03:52:31.676Z,66.00
2023-05-10T03:54:58.552Z,66.20
2023-05-10T03:57:25.352Z,66.30
2023-05-10T03:59:52.177Z,66.40
2023-05-10T04:02:19.028Z,66.70
2023-05-10T04:04:45.829Z,66.80
2023-05-10T04:07:12.638Z,67.00
2023-05-10T04:09:39.416Z,67.10
2023-05-10T04:12:07.116Z,67.60
2023-05-10T04:14:35.203Z,67.60
2023-05-10T04:17:02.240Z,67.60
2023-05-10T04:19:32.723Z,67.80
2023-05-10T04:21:59.991Z,67.90
2023-05-10T04:24:27.018Z,68.10
2023-05-10T04:26:57.649Z,67.90
2023-05-10T04:29:24.687Z,67.80
2023-05-10T04:31:52.146Z,67.90
2023-05-10T04:34:19.577Z,68.10
2023-05-10T04:36:46.349Z,68.40
2023-05-10T04:39:13.573Z,68.30
2023-05-10T04:41:40.412Z,68.10
2023-05-10T04:44:07.454Z,68.30
2023-05-10T04:46:34.301Z,68.30
2023-05-10T04:49:01.152Z,67.90
2023-05-10T04:51:27.947Z,67.80
2023-05-10T04:54:05.397Z,68.30
2023-05-10T04:56:33.368Z,67.30
2023-05-10T04:59:00.174Z,67.20
2023-05-10T05:01:27.122Z,67.10
2023-05-10T05:03:54.468Z,66.60
2023-05-10T05:06:25.804Z,66.10
2023-05-10T05:08:52.699Z,66.40
2023-05-10T05:11:20.783Z,66.70
2023-05-10T05:13:47.595Z,66.60
2023-05-10T05:16:14.402Z,66.40
2023-05-10T05:18:41.229Z,66.60
2023-05-10T05:21:18.382Z,66.60
2023-05-10T05:23:45.454Z,66.60
2023-05-10T05:26:12.531Z,66.40
2023-05-10T05:28:39.540Z,66.90
2023-05-10T05:31:07.318Z,67.90
2023-05-10T05:33:34.877Z,67.30
2023-05-10T05:36:05.944Z,67.50
2023-05-10T05:38:33.273Z,67.80
2023-05-10T05:41:00.160Z,68.00
2023-05-10T05:43:26.948Z,68.20
2023-05-10T05:45:54.964Z,68.10
2023-05-10T05:48:22.647Z,68.10
2023-05-10T05:50:49.453Z,68.10
2023-05-10T05:53:16.888Z,68.20
2023-05-10T05:55:54.437Z,68.30
2023-05-10T05:58:21.982Z,67.50
2023-05-10T06:00:48.962Z,68.10
2023-05-10T06:03:15.940Z,68.30
2023-05-10T06:05:42.748Z,68.30
2023-05-10T06:08:09.509Z,68.20
2023-05-10T06:10:36.423Z,68.00
2023-05-10T06:13:03.748Z,68.00
2023-05-10T06:15:30.978Z,68.00
2023-05-10T06:17:57.799Z,67.30
2023-05-10T06:20:24.725Z,67.70
2023-05-10T06:22:51.501Z,67.90
2023-05-10T06:25:19.480Z,68.60
2023-05-10T06:27:50.422Z,68.90
2023-05-10T06:30:19.720Z,68.90
2023-05-10T06:32:47.145Z,68.80
2023-05-10T06:35:14.127Z,68.40
2023-05-10T06:37:41.011Z,68.00
2023-05-10T06:40:08.609Z,68.00
2023-05-10T06:42:35.536Z,67.90
2023-05-10T06:45:02.468Z,68.00
2023-05-10T06:47:29.301Z,68.00
2023-05-10T06:49:56.837Z,67.70
2023-05-10T06:52:24.427Z,67.80
2023-05-10T06:54:51.400Z,67.50
2023-05-10T06:57:30.638Z,67.80
2023-05-10T07:00:05.191Z,68.70
2023-05-10T07:02:32.161Z,68.80
2023-05-10T07:05:01.734Z,67.40
2023-05-10T07:07:29.965Z,67.90
2023-05-10T07:09:58.617Z,66.30
2023-05-10T07:12:25.967Z,66.00
2023-05-10T07:14:53.288Z,66.00
2023-05-10T07:17:20.318Z,65.60
2023-05-10T07:19:47.087Z,65.70
2023-05-10T07:22:14.056Z,65.30
2023-05-10T07:24:41.490Z,63.00
2023-05-10T07:27:08.358Z,62.80
2023-05-10T07:29:35.171Z,62.80
2023-05-10T07:32:02.265Z,61.30
2023-05-10T07:34:31.088Z,61.10
2023-05-10T07:36:59.505Z,60.50
2023-05-10T07:39:28.204Z,59.50
2023-05-10T07:41:56.369Z,59.10
2023-05-10T07:44:23.469Z,58.60
2023-05-10T07:46:50.310Z,59.20
2023-05-10T07:49:17.452Z,59.40
2023-05-10T07:51:44.417Z,57.90
2023-05-10T07:54:11.274Z,57.10
2023-05-10T07:56:38.188Z,56.30
2023-05-10T07:59:07.439Z,55.90
2023-05-10T08:01:35.651Z,54.50
2023-05-10T08:04:03.253Z,53.80
2023-05-10T08:06:31.286Z,54.40
2023-05-10T08:08:58.597Z,53.80
2023-05-10T08:11:25.828Z,53.70
2023-05-10T08:13:53.181Z,53.60
2023-05-10T08:16:20.537Z,52.50
2023-05-10T08:18:48.251Z,53.40
2023-05-10T08:21:15.950Z,52.90
2023-05-10T08:23:45.172Z,52.70
2023-05-10T08:26:12.303Z,52.10
2023-05-10T08:28:39.382Z,52.40
2023-05-10T08:31:06.744Z,51.70
2023-05-10T08:33:33.782Z,51.20
2023-05-10T08:36:00.835Z,51.40
2023-05-10T08:38:27.741Z,51.60
2023-05-10T08:40:59.822Z,51.50
2023-05-10T08:43:30.918Z,51.70
2023-05-10T08:46:01.351Z,51.50
2023-05-10T08:48:30.520Z,50.10
2023-05-10T08:50:59.605Z,50.50
2023-05-10T08:53:29.727Z,50.60
2023-05-10T08:55:56.786Z,50.60
2023-05-10T08:58:23.700Z,49.90
2023-05-10T09:00:54.187Z,50.10
2023-05-10T09:03:21.183Z,50.80
2023-05-10T09:05:48.770Z,49.60
2023-05-10T09:08:17.424Z,49.70
2023-05-10T09:10:49.269Z,50.30
2023-05-10T09:13:16.682Z,50.50
2023-05-10T09:15:45.402Z,51.90
2023-05-10T09:18:12.827Z,51.30
2023-05-10T09:20:39.652Z,51.20
2023-05-10T09:23:06.965Z,51.80
2023-05-10T09:25:37.320Z,52.30
2023-05-10T09:28:07.741Z,53.00
2023-05-10T09:30:34.533Z,51.10
2023-05-10T09:33:01.823Z,52.60
2023-05-10T09:35:31.268Z,52.80
2023-05-10T09:38:03.749Z,51.90
2023-05-10T09:40:31.774Z,51.70
2023-05-10T09:43:01.415Z,51.40
2023-05-10T09:45:30.296Z,51.70
2023-05-10T09:47:57.761Z,51.80
2023-05-10T09:50:24.959Z,51.70
2023-05-10T09:52:59.333Z,51.90
2023-05-10T09:55:47.313Z,51.10
2023-05-10T09:58:15.363Z,51.50
2023-05-10T10:00:44.504Z,52.20
2023-05-10T10:03:19.640Z,51.70
2023-05-10T10:05:47.943Z,50.30
2023-05-10T10:08:16.171Z,50.60
2023-05-10T10:10:46.399Z,50.90
2023-05-10T10:13:13.566Z,50.50
2023-05-10T10:15:40.684Z,51.10
2023-05-10T10:18:08.974Z,51.30
2023-05-10T10:20:38.607Z,50.90
2023-05-10T10:23:05.538Z,50.60
2023-05-10T10:25:33.116Z,50.40
2023-05-10T10:28:10.642Z,50.20
2023-05-10T10:30:47.323Z,50.70
2023-05-10T10:33:33.155Z,50.20
2023-05-10T10:36:02.552Z,50.00
2023-05-10T10:39:04.740Z,49.50
2023-05-10T10:41:34.646Z,49.20
2023-05-10T10:44:30.378Z,49.60
2023-05-10T10:47:10.242Z,50.20
2023-05-10T10:49:49.450Z,50.30
2023-05-10T10:52:30.882Z,49.30
2023-05-10T10:55:19.836Z,49.30
2023-05-10T10:57:48.106Z,49.70
2023-05-10T11:00:21.402Z,49.90
2023-05-10T11:02:52.535Z,50.80
2023-05-10T11:05:37.663Z,51.10
2023-05-10T11:08:15.991Z,49.90
2023-05-10T11:10:53.227Z,49.90
2023-05-10T11:13:51.203Z,50.10
2023-05-10T11:16:18.478Z,49.60
2023-05-10T11:19:00.989Z,49.60
2023-05-10T11:21:27.892Z,49.30
2023-05-10T11:23:59.415Z,50.20
2023-05-10T11:26:27.410Z,49.80
2023-05-10T11:28:56.416Z,50.20
2023-05-10T11:31:24.277Z,50.60
2023-05-10T11:33:53.427Z,51.40
2023-05-10T11:36:24.466Z,52.20
2023-05-10T11:38:51.843Z,51.10
2023-05-10T11:41:22.581Z,51.10
2023-05-10T11:43:51.556Z,50.20
2023-05-10T11:46:24.011Z,50.30
2023-05-10T11:48:52.713Z,49.80
2023-05-10T11:51:26.209Z,49.50
2023-05-10T11:53:56.358Z,49.50
2023-05-10T11:56:24.511Z,49.60
2023-05-10T11:58:58.656Z,49.30
2023-05-10T12:01:27.371Z,49.60
2023-05-10T12:04:00.012Z,49.00
2023-05-10T12:06:32.779Z,48.80
2023-05-10T12:09:00.014Z,50.30
2023-05-10T12:11:28.447Z,50.50
2023-05-10T12:13:56.281Z,50.10
2023-05-10T12:16:29.851Z,50.20
2023-05-10T12:19:01.693Z,50.70
2023-05-10T12:21:31.832Z,51.10
2023-05-10T12:24:04.454Z,49.60
2023-05-10T12:26:33.823Z,49.30
2023-05-10T12:29:14.745Z,49.40
2023-05-10T12:31:52.945Z,49.40
2023-05-10T12:34:32.640Z,48.60
2023-05-10T12:37:00.178Z,49.70
2023-05-10T12:39:27.059Z,49.80
2023-05-10T12:41:54.166Z,48.70
2023-05-10T12:44:20.989Z,49.90
2023-05-10T12:46:47.700Z,48.60
2023-05-10T12:49:14.457Z,49.90
2023-05-10T12:51:41.170Z,48.20
2023-05-10T12:54:07.911Z,49.40
2023-05-10T12:56:34.750Z,50.40
2023-05-10T12:59:01.508Z,50.60
2023-05-10T13:01:29.220Z,49.90
2023-05-10T13:03:56.060Z,49.80
2023-05-10T13:06:22.791Z,49.70
2023-05-10T13:08:50.054Z,48.60
2023-05-10T13:11:17.981Z,49.00
2023-05-10T13:13:44.845Z,48.80
2023-05-10T13:16:11.644Z,48.70
2023-05-10T13:18:38.474Z,47.60
2023-05-10T13:21:06.411Z,48.40
2023-05-10T13:23:33.283Z,48.10
2023-05-10T13:26:00.034Z,48.30
2023-05-10T13:28:27.401Z,48.20
2023-05-10T13:30:54.327Z,48.20
2023-05-10T13:33:21.123Z,48.40
2023-05-10T13:35:47.940Z,48.10
2023-05-10T13:38:14.915Z,48.50
2023-05-10T13:40:41.923Z,48.30
2023-05-10T13:43:08.792Z,48.50
2023-05-10T13:45:35.527Z,48.40
2023-05-10T13:48:02.315Z,49.00
2023-05-10T13:50:29.204Z,49.70
2023-05-10T13:52:56.452Z,48.10
2023-05-10T13:55:23.337Z,48.50
2023-05-10T13:57:50.090Z,47.70
2023-05-10T14:00:17.461Z,47.50
2023-05-10T14:02:44.375Z,48.70
2023-05-10T14:05:11.253Z,48.00
2023-05-10T14:07:38.045Z,47.80
2023-05-10T14:10:05.132Z,48.10
2023-05-10T14:12:32.062Z,48.70
2023-05-10T14:14:59.184Z,48.20
2023-05-10T14:17:28.764Z,48.50
2023-05-10T14:19:55.768Z,47.90
2023-05-10T14:22:22.977Z,48.50
2023-05-10T14:24:50.050Z,48.00
2023-05-10T14:27:17.135Z,48.00
2023-05-10T14:29:43.967Z,47.70
2023-05-10T14:32:10.877Z,47.30
2023-05-10T14:34:37.796Z,47.40
2023-05-10T14:37:05.488Z,47.70
2023-05-10T14:39:32.333Z,46.40
2023-05-10T14:41:59.603Z,46.90
2023-05-10T14:44:27.205Z,47.90
2023-05-10T14:46:54.109Z,47.50
2023-05-10T14:49:23.789Z,47.20
2023-05-10T14:51:50.599Z,47.30
2023-05-10T14:54:17.373Z,47.70
2023-05-10T14:56:44.146Z,48.30
2023-05-10T14:59:11.015Z,48.30
2023-05-10T15:01:38.961Z,48.50
2023-05-10T15:04:06.248Z,48.90
2023-05-10T15:06:34.979Z,48.70
2023-05-10T15:09:02.545Z,49.20
2023-05-10T15:11:30.000Z,49.20
2023-05-10T15:13:56.889Z,48.80
2023-05-10T15:16:23.773Z,48.70
2023-05-10T15:18:50.775Z,48.60
2023-05-10T15:21:17.587Z,47.30
2023-05-10T15:23:44.425Z,47.80
2023-05-10T15:26:11.251Z,48.00
2023-05-10T15:28:38.017Z,48.30
2023-05-10T15:31:04.881Z,47.50
2023-05-10T15:33:32.035Z,47.30
2023-05-10T15:35:58.843Z,47.30
2023-05-10T15:38:25.602Z,47.20
2023-05-10T15:40:54.461Z,46.50
2023-05-10T15:43:21.254Z,46.50
2023-05-10T15:45:48.008Z,47.00
2023-05-10T15:48:14.823Z,46.40
2023-05-10T15:50:41.614Z,46.10
2023-05-10T15:53:08.397Z,45.20
2023-05-10T15:55:35.392Z,45.00
2023-05-10T15:58:02.180Z,45.60
2023-05-10T16:00:28.974Z,45.50
2023-05-10T16:02:55.814Z,45.90
2023-05-10T16:05:22.704Z,45.80
2023-05-10T16:07:49.490Z,45.50
2023-05-10T16:10:16.370Z,45.70
2023-05-10T16:12:43.217Z,46.30
2023-05-10T16:15:10.502Z,45.20
2023-05-10T16:17:37.532Z,44.70
2023-05-10T16:20:06.179Z,45.30
2023-05-10T16:22:32.969Z,44.80
2023-05-10T16:25:00.241Z,44.60
2023-05-10T16:27:30.287Z,44.40
2023-05-10T16:29:57.244Z,44.60
2023-05-10T16:32:24.213Z,45.00
2023-05-10T16:34:51.132Z,44.80
2023-05-10T16:37:18.330Z,44.50
2023-05-10T16:39:45.077Z,44.80
2023-05-10T16:42:11.848Z,45.00
2023-05-10T16:44:38.596Z,44.60
2023-05-10T16:47:05.433Z,44.90
2023-05-10T16:49:32.271Z,44.80
2023-05-10T16:51:59.970Z,45.10
2023-05-10T17:05:53.918Z,45.10
2023-05-10T17:08:21.642Z,45.00
2023-05-10T17:10:48.536Z,45.10
2023-05-10T17:13:17.170Z,45.20
2023-05-10T17:15:46.340Z,45.00
2023-05-10T17:18:13.154Z,44.70
2023-05-10T17:20:40.165Z,44.80
2023-05-10T17:23:07.058Z,45.00
2023-05-10T17:25:35.632Z,44.80
2023-05-10T17:28:03.604Z,45.00
2023-05-10T17:30:32.790Z,45.00
2023-05-10T17:33:00.589Z,45.20
2023-05-10T17:35:27.827Z,45.50
2023-05-10T17:37:54.659Z,45.50
2023-05-10T17:40:21.508Z,45.80
2023-05-10T17:42:48.571Z,45.90
2023-05-10T17:45:15.613Z,46.20
2023-05-10T17:47:42.601Z,46.20
2023-05-10T17:50:10.305Z,46.50
2023-05-10T17:52:37.927Z,46.50
2023-05-10T17:55:05.222Z,46.70
2023-05-10T17:57:32.008Z,46.80
2023-05-10T17:59:58.773Z,46.90
2023-05-10T18:02:25.706Z,47.10
2023-05-10T18:04:52.617Z,47.40
2023-05-10T18:07:20.345Z,47.70
2023-05-10T18:09:47.118Z,47.70
2023-05-10T18:12:13.876Z,47.80
2023-05-10T18:14:41.584Z,47.90
2023-05-10T18:17:09.652Z,47.90
2023-05-10T18:19:36.649Z,48.10
2023-05-10T18:22:03.605Z,48.20
2023-05-10T18:24:38.994Z,48.40
2023-05-10T18:27:07.990Z,48.40
2023-05-10T18:29:35.168Z,48.50
2023-05-10T18:32:01.937Z,48.60
2023-05-10T18:34:28.956Z,48.70
2023-05-10T18:36:56.381Z,48.60
2023-05-10T18:39:24.105Z,49.00
2023-05-10T18:41:50.994Z,49.00
2023-05-10T18:44:18.987Z,49.10
2023-05-10T18:46:46.454Z,49.00
2023-05-10T18:49:13.399Z,48.90
2023-05-10T18:51:40.129Z,49.10
2023-05-10T18:54:07.379Z,49.40
2023-05-10T18:56:34.192Z,49.50
2023-05-10T18:59:01.139Z,49.60
2023-05-10T19:01:28.038Z,49.70
2023-05-10T19:03:54.891Z,49.80
2023-05-10T19:06:21.594Z,50.00
2023-05-10T19:08:48.436Z,50.20
2023-05-10T19:11:15.165Z,50.30
2023-05-10T19:13:42.253Z,50.40
2023-05-10T19:16:14.237Z,50.60
2023-05-10T19:18:41.365Z,50.60
2023-05-10T19:21:10.778Z,50.70
2023-05-10T19:23:40.173Z,50.80
2023-05-10T19:26:07.430Z,50.80
2023-05-10T19:28:34.363Z,50.80
2023-05-10T19:31:01.824Z,50.90
2023-05-10T19:33:29.281Z,50.90
2023-05-10T19:35:56.404Z,51.00
2023-05-10T19:38:23.893Z,51.20
2023-05-10T19:40:58.306Z,51.20
2023-05-10T19:43:28.501Z,51.30
2023-05-10T19:46:07.733Z,51.30
2023-05-10T19:48:34.782Z,51.40
2023-05-10T19:51:03.689Z,51.60
2023-05-10T19:53:31.638Z,51.60
2023-05-10T19:56:06.378Z,51.50
2023-05-10T19:58:34.057Z,51.60
2023-05-10T20:01:01.148Z,51.50
2023-05-10T20:03:28.695Z,51.40
2023-05-10T20:05:55.706Z,51.60
2023-05-10T20:08:22.513Z,51.60
2023-05-10T20:10:49.312Z,51.60
2023-05-10T20:13:16.142Z,51.70
2023-05-10T20:15:42.908Z,51.60
2023-05-10T20:18:09.843Z,51.70
2023-05-10T20:20:36.730Z,51.70
2023-05-10T20:23:04.091Z,51.80
2023-05-10T20:25:30.930Z,52.00
2023-05-10T20:27:57.779Z,52.10
2023-05-10T20:30:24.542Z,52.10
2023-05-10T20:32:51.959Z,52.10
2023-05-10T20:35:18.911Z,52.20
2023-05-10T20:37:46.181Z,52.40
2023-05-10T20:40:13.165Z,52.50
2023-05-10T20:42:39.931Z,52.50
2023-05-10T20:45:07.308Z,52.50
2023-05-10T20:47:34.257Z,52.60
2023-05-10T20:50:01.068Z,52.80
2023-05-10T20:52:27.925Z,52.90
2023-05-10T20:54:54.950Z,52.80
2023-05-10T20:57:21.694Z,52.90
2023-05-10T20:59:50.532Z,53.00
2023-05-10T21:02:17.311Z,53.10
2023-05-10T21:04:44.181Z,53.20
2023-05-10T21:07:10.981Z,53.20
2023-05-10T21:09:37.935Z,53.30
2023-05-10T21:12:05.696Z,53.40
2023-05-10T21:14:32.580Z,53.50
2023-05-10T21:16:59.330Z,53.50
2023-05-10T21:19:26.105Z,53.40
2023-05-10T21:21:54.847Z,53.70
2023-05-10T21:24:21.661Z,53.80
2023-05-10T21:26:48.437Z,53.90
2023-05-10T21:29:15.178Z,53.80
2023-05-10T21:31:42.044Z,53.90
2023-05-10T21:34:09.255Z,53.80
2023-05-10T21:36:36.030Z,53.80
2023-05-10T21:39:03.472Z,53.90
2023-05-10T21:41:31.143Z,54.10
2023-05-10T21:43:57.914Z,54.70
2023-05-10T21:46:24.742Z,54.10
2023-05-10T21:48:51.492Z,54.20
2023-05-10T21:51:18.377Z,54.10
2023-05-10T21:53:45.194Z,54.20
2023-05-10T21:56:12.298Z,54.20
2023-05-10T21:58:39.136Z,54.20
2023-05-10T22:01:06.189Z,54.30
2023-05-10T22:03:33.107Z,54.30
2023-05-10T22:05:59.930Z,54.40
2023-05-10T22:08:26.774Z,54.40
2023-05-10T22:10:53.590Z,54.40
2023-05-10T22:13:20.334Z,54.30
2023-05-10T22:15:47.076Z,54.60
2023-05-10T22:18:13.905Z,54.60
2023-05-10T22:20:40.687Z,54.60
2023-05-10T22:23:07.493Z,54.60
2023-05-10T22:25:34.235Z,55.40
2023-05-10T22:28:01.001Z,54.80
2023-05-10T22:30:27.835Z,55.00
2023-05-10T22:32:54.714Z,54.90
2023-05-10T22:35:21.503Z,54.90
2023-05-10T22:37:48.265Z,55.00
2023-05-10T22:40:15.865Z,54.90
2023-05-10T22:42:42.742Z,55.00
2023-05-10T22:45:10.138Z,55.10
2023-05-10T22:47:36.966Z,55.10
2023-05-10T22:50:04.297Z,55.20
2023-05-10T22:52:31.186Z,55.20
2023-05-10T22:55:00.515Z,55.30
2023-05-10T22:57:27.514Z,55.50
2023-05-10T22:59:54.309Z,55.40
2023-05-10T23:02:21.310Z,55.60
2023-05-10T23:04:48.328Z,55.50
2023-05-10T23:07:15.634Z,55.40
2023-05-10T23:09:42.391Z,55.40
2023-05-10T23:12:09.300Z,55.40
2023-05-10T23:14:36.067Z,56.30
2023-05-10T23:17:03.145Z,55.80
2023-05-10T23:19:29.903Z,55.60
2023-05-10T23:21:56.742Z,55.60
2023-05-10T23:24:23.487Z,55.80
2023-05-10T23:26:50.456Z,55.80
2023-05-10T23:29:17.293Z,55.90
2023-05-10T23:31:46.328Z,55.90
2023-05-10T23:34:13.174Z,56.00
2023-05-10T23:36:39.986Z,55.90
2023-05-10T23:39:08.206Z,55.80
2023-05-10T23:41:35.045Z,55.90
2023-05-10T23:44:02.644Z,55.90
2023-05-10T23:46:29.497Z,55.90
2023-05-10T23:48:56.452Z,55.80
2023-05-10T23:51:23.243Z,55.80
2023-05-10T23:53:50.031Z,56.00
2023-05-10T23:56:16.838Z,55.90
2023-05-10T23:58:44.219Z,55.80
